sensor_id;sensor_type;location;lat;lon;timestamp;temperature;humidity
20598;DHT22;10457;48.770;11.446;2023-04-06T00:04:00;0.70;65.10
20598;DHT22;10457;48.770;11.446;2023-04-06T00:09:22;0.60;65.70
20598;DHT22;10457;48.770;11.446;2023-04-06T00:14:45;0.50;66.00
20598;DHT22;10457;48.770;11.446;2023-04-06T00:20:08;0.50;66.40
20598;DHT22;10457;48.770;11.446;2023-04-06T00:25:30;0.50;66.20
20598;DHT22;10457;48.770;11.446;2023-04-06T00:30:53;0.50;66.50
20598;DHT22;10457;48.770;11.446;2023-04-06T00:36:15;0.40;67.30
20598;DHT22;10457;48.770;11.446;2023-04-06T00:41:39;0.40;66.90
20598;DHT22;10457;48.770;11.446;2023-04-06T00:47:05;0.40;67.10
20598;DHT22;10457;48.770;11.446;2023-04-06T00:52:27;0.30;67.00
20598;DHT22;10457;48.770;11.446;2023-04-06T00:57:49;0.20;68.30
20598;DHT22;10457;48.770;11.446;2023-04-06T01:03:12;0.20;68.00
20598;DHT22;10457;48.770;11.446;2023-04-06T01:08:36;0.10;68.70
20598;DHT22;10457;48.770;11.446;2023-04-06T01:14:10;0.10;68.80
20598;DHT22;10457;48.770;11.446;2023-04-06T01:19:45;0.00;69.20
20598;DHT22;10457;48.770;11.446;2023-04-06T01:25:17;0.00;69.30
20598;DHT22;10457;48.770;11.446;2023-04-06T01:30:53;-0.10;69.20
20598;DHT22;10457;48.770;11.446;2023-04-06T01:36:34;-0.10;69.90
20598;DHT22;10457;48.770;11.446;2023-04-06T01:42:12;-0.20;70.50
20598;DHT22;10457;48.770;11.446;2023-04-06T01:47:34;-0.10;71.40
20598;DHT22;10457;48.770;11.446;2023-04-06T01:52:57;-0.20;71.10
20598;DHT22;10457;48.770;11.446;2023-04-06T01:58:22;-0.20;71.10
20598;DHT22;10457;48.770;11.446;2023-04-06T02:03:44;-0.20;70.50
20598;DHT22;10457;48.770;11.446;2023-04-06T02:09:06;-0.20;70.60
20598;DHT22;10457;48.770;11.446;2023-04-06T02:14:30;-0.40;71.10
20598;DHT22;10457;48.770;11.446;2023-04-06T02:19:54;-0.40;71.90
20598;DHT22;10457;48.770;11.446;2023-04-06T02:25:15;-0.30;71.10
20598;DHT22;10457;48.770;11.446;2023-04-06T02:30:38;-0.40;71.30
20598;DHT22;10457;48.770;11.446;2023-04-06T02:36:00;-0.30;71.30
20598;DHT22;10457;48.770;11.446;2023-04-06T02:41:22;-0.40;71.80
20598;DHT22;10457;48.770;11.446;2023-04-06T02:46:46;-0.30;71.90
20598;DHT22;10457;48.770;11.446;2023-04-06T02:52:08;-0.40;72.90
20598;DHT22;10457;48.770;11.446;2023-04-06T02:57:30;-0.40;73.80
20598;DHT22;10457;48.770;11.446;2023-04-06T03:02:54;-0.30;73.30
20598;DHT22;10457;48.770;11.446;2023-04-06T03:08:16;-0.50;73.60
20598;DHT22;10457;48.770;11.446;2023-04-06T03:13:39;-0.60;73.60
20598;DHT22;10457;48.770;11.446;2023-04-06T03:19:02;-0.60;74.00
20598;DHT22;10457;48.770;11.446;2023-04-06T03:24:28;-0.70;74.00
20598;DHT22;10457;48.770;11.446;2023-04-06T03:29:50;-0.70;74.20
20598;DHT22;10457;48.770;11.446;2023-04-06T03:35:20;-0.70;74.10
20598;DHT22;10457;48.770;11.446;2023-04-06T03:40:42;-0.60;73.40
20598;DHT22;10457;48.770;11.446;2023-04-06T03:46:04;-0.60;73.20
20598;DHT22;10457;48.770;11.446;2023-04-06T03:51:28;-0.60;73.50
20598;DHT22;10457;48.770;11.446;2023-04-06T03:56:50;-0.70;73.70
20598;DHT22;10457;48.770;11.446;2023-04-06T04:02:12;-0.70;73.60
20598;DHT22;10457;48.770;11.446;2023-04-06T04:07:36;-0.80;73.20
20598;DHT22;10457;48.770;11.446;2023-04-06T04:12:57;-0.80;73.60
20598;DHT22;10457;48.770;11.446;2023-04-06T04:18:19;-0.80;74.60
20598;DHT22;10457;48.770;11.446;2023-04-06T04:23:42;-0.90;74.40
20598;DHT22;10457;48.770;11.446;2023-04-06T04:29:04;-0.90;74.50
20598;DHT22;10457;48.770;11.446;2023-04-06T04:34:25;-1.00;74.10
20598;DHT22;10457;48.770;11.446;2023-04-06T04:39:49;-1.00;73.70
20598;DHT22;10457;48.770;11.446;2023-04-06T04:45:11;-1.10;74.30
20598;DHT22;10457;48.770;11.446;2023-04-06T04:50:35;-1.00;73.60
20598;DHT22;10457;48.770;11.446;2023-04-06T04:55:58;-1.00;73.00
20598;DHT22;10457;48.770;11.446;2023-04-06T05:01:21;-1.00;73.30
20598;DHT22;10457;48.770;11.446;2023-04-06T05:06:44;-0.90;73.60
20598;DHT22;10457;48.770;11.446;2023-04-06T05:12:08;-0.80;72.60
20598;DHT22;10457;48.770;11.446;2023-04-06T05:17:40;-0.40;72.70
20598;DHT22;10457;48.770;11.446;2023-04-06T05:23:03;0.70;68.00
20598;DHT22;10457;48.770;11.446;2023-04-06T05:28:27;1.70;62.80
20598;DHT22;10457;48.770;11.446;2023-04-06T05:33:49;2.50;59.40
20598;DHT22;10457;48.770;11.446;2023-04-06T05:39:21;3.40;57.10
20598;DHT22;10457;48.770;11.446;2023-04-06T05:44:48;4.20;54.30
20598;DHT22;10457;48.770;11.446;2023-04-06T05:50:11;4.90;51.80
20598;DHT22;10457;48.770;11.446;2023-04-06T05:55:34;5.60;50.70
20598;DHT22;10457;48.770;11.446;2023-04-06T06:01:08;5.80;50.20
20598;DHT22;10457;48.770;11.446;2023-04-06T06:06:34;6.70;47.60
20598;DHT22;10457;48.770;11.446;2023-04-06T06:12:05;6.80;46.40
20598;DHT22;10457;48.770;11.446;2023-04-06T06:17:29;7.00;45.50
20598;DHT22;10457;48.770;11.446;2023-04-06T06:22:51;6.60;46.00
20598;DHT22;10457;48.770;11.446;2023-04-06T06:28:15;6.10;48.60
20598;DHT22;10457;48.770;11.446;2023-04-06T06:33:38;6.30;48.70
20598;DHT22;10457;48.770;11.446;2023-04-06T06:39:00;6.30;49.00
20598;DHT22;10457;48.770;11.446;2023-04-06T06:44:24;7.10;47.90
20598;DHT22;10457;48.770;11.446;2023-04-06T06:49:47;6.50;49.40
20598;DHT22;10457;48.770;11.446;2023-04-06T06:55:10;6.90;48.10
20598;DHT22;10457;48.770;11.446;2023-04-06T07:00:32;7.10;47.10
20598;DHT22;10457;48.770;11.446;2023-04-06T07:05:55;6.80;49.20
20598;DHT22;10457;48.770;11.446;2023-04-06T07:11:19;7.10;49.10
20598;DHT22;10457;48.770;11.446;2023-04-06T07:16:40;7.60;48.60
20598;DHT22;10457;48.770;11.446;2023-04-06T07:22:05;8.60;46.60
20598;DHT22;10457;48.770;11.446;2023-04-06T07:27:26;8.30;46.40
20598;DHT22;10457;48.770;11.446;2023-04-06T07:32:48;8.70;46.10
20598;DHT22;10457;48.770;11.446;2023-04-06T07:38:12;9.50;43.60
20598;DHT22;10457;48.770;11.446;2023-04-06T07:43:34;10.20;41.30
20598;DHT22;10457;48.770;11.446;2023-04-06T07:48:59;10.90;40.40
20598;DHT22;10457;48.770;11.446;2023-04-06T07:54:24;10.90;38.60
20598;DHT22;10457;48.770;11.446;2023-04-06T07:59:46;10.70;39.70
20598;DHT22;10457;48.770;11.446;2023-04-06T08:05:08;10.50;40.30
20598;DHT22;10457;48.770;11.446;2023-04-06T08:10:31;11.40;39.90
20598;DHT22;10457;48.770;11.446;2023-04-06T08:15:54;11.80;37.50
20598;DHT22;10457;48.770;11.446;2023-04-06T08:21:17;11.40;39.10
20598;DHT22;10457;48.770;11.446;2023-04-06T08:26:40;12.20;36.20
20598;DHT22;10457;48.770;11.446;2023-04-06T08:32:02;12.60;35.20
20598;DHT22;10457;48.770;11.446;2023-04-06T08:37:25;12.40;34.70
20598;DHT22;10457;48.770;11.446;2023-04-06T08:42:50;12.00;34.10
20598;DHT22;10457;48.770;11.446;2023-04-06T08:48:15;11.70;34.60
20598;DHT22;10457;48.770;11.446;2023-04-06T08:53:38;11.40;34.60
20598;DHT22;10457;48.770;11.446;2023-04-06T08:59:03;11.80;34.40
20598;DHT22;10457;48.770;11.446;2023-04-06T09:04:26;12.50;32.90
20598;DHT22;10457;48.770;11.446;2023-04-06T09:09:47;12.90;34.00
20598;DHT22;10457;48.770;11.446;2023-04-06T09:15:19;12.90;31.60
20598;DHT22;10457;48.770;11.446;2023-04-06T09:20:42;12.60;33.60
20598;DHT22;10457;48.770;11.446;2023-04-06T09:26:09;11.90;33.20
20598;DHT22;10457;48.770;11.446;2023-04-06T09:31:32;11.80;33.20
20598;DHT22;10457;48.770;11.446;2023-04-06T09:36:54;12.50;32.30
20598;DHT22;10457;48.770;11.446;2023-04-06T09:42:23;12.60;31.80
20598;DHT22;10457;48.770;11.446;2023-04-06T09:47:48;12.50;32.20
20598;DHT22;10457;48.770;11.446;2023-04-06T09:53:11;12.30;31.40
20598;DHT22;10457;48.770;11.446;2023-04-06T09:58:34;12.70;29.60
20598;DHT22;10457;48.770;11.446;2023-04-06T10:04:09;13.30;29.20
20598;DHT22;10457;48.770;11.446;2023-04-06T10:09:38;13.20;30.80
20598;DHT22;10457;48.770;11.446;2023-04-06T10:15:00;14.30;30.30
20598;DHT22;10457;48.770;11.446;2023-04-06T10:20:27;14.90;29.20
20598;DHT22;10457;48.770;11.446;2023-04-06T10:25:53;15.00;28.70
20598;DHT22;10457;48.770;11.446;2023-04-06T10:31:15;16.20;29.00
20598;DHT22;10457;48.770;11.446;2023-04-06T10:36:46;18.40;25.50
20598;DHT22;10457;48.770;11.446;2023-04-06T10:42:08;19.40;22.30
20598;DHT22;10457;48.770;11.446;2023-04-06T10:47:39;19.80;20.90
20598;DHT22;10457;48.770;11.446;2023-04-06T10:53:03;20.60;19.60
20598;DHT22;10457;48.770;11.446;2023-04-06T10:58:27;20.40;19.60
20598;DHT22;10457;48.770;11.446;2023-04-06T11:03:50;19.90;20.60
20598;DHT22;10457;48.770;11.446;2023-04-06T11:09:23;20.70;20.00
20598;DHT22;10457;48.770;11.446;2023-04-06T11:14:53;23.80;18.70
20598;DHT22;10457;48.770;11.446;2023-04-06T11:20:15;25.20;17.00
20598;DHT22;10457;48.770;11.446;2023-04-06T11:25:39;24.20;15.40
20598;DHT22;10457;48.770;11.446;2023-04-06T11:31:12;24.00;16.10
20598;DHT22;10457;48.770;11.446;2023-04-06T11:36:34;19.90;17.70
20598;DHT22;10457;48.770;11.446;2023-04-06T11:42:00;20.20;19.20
20598;DHT22;10457;48.770;11.446;2023-04-06T11:47:28;23.00;17.00
20598;DHT22;10457;48.770;11.446;2023-04-06T11:52:58;22.40;17.90
20598;DHT22;10457;48.770;11.446;2023-04-06T11:58:22;23.50;16.20
20598;DHT22;10457;48.770;11.446;2023-04-06T12:03:44;24.80;16.30
20598;DHT22;10457;48.770;11.446;2023-04-06T12:09:05;26.20;14.40
20598;DHT22;10457;48.770;11.446;2023-04-06T12:14:28;24.60;15.40
20598;DHT22;10457;48.770;11.446;2023-04-06T12:19:51;21.60;16.90
20598;DHT22;10457;48.770;11.446;2023-04-06T12:25:12;21.80;16.50
20598;DHT22;10457;48.770;11.446;2023-04-06T12:30:36;20.50;18.60
20598;DHT22;10457;48.770;11.446;2023-04-06T12:35:57;19.40;20.00
20598;DHT22;10457;48.770;11.446;2023-04-06T12:41:19;19.60;19.50
20598;DHT22;10457;48.770;11.446;2023-04-06T12:46:42;16.80;21.30
20598;DHT22;10457;48.770;11.446;2023-04-06T12:52:05;15.80;24.40
20598;DHT22;10457;48.770;11.446;2023-04-06T12:57:26;15.40;24.30
20598;DHT22;10457;48.770;11.446;2023-04-06T13:02:49;18.70;22.40
20598;DHT22;10457;48.770;11.446;2023-04-06T13:08:11;22.80;17.60
20598;DHT22;10457;48.770;11.446;2023-04-06T13:13:33;22.60;18.10
20598;DHT22;10457;48.770;11.446;2023-04-06T13:18:56;25.00;15.80
20598;DHT22;10457;48.770;11.446;2023-04-06T13:24:18;25.30;14.00
20598;DHT22;10457;48.770;11.446;2023-04-06T13:29:41;22.00;16.50
20598;DHT22;10457;48.770;11.446;2023-04-06T13:35:06;19.90;17.40
20598;DHT22;10457;48.770;11.446;2023-04-06T13:40:28;18.50;19.30
20598;DHT22;10457;48.770;11.446;2023-04-06T13:45:49;19.10;20.00
20598;DHT22;10457;48.770;11.446;2023-04-06T13:51:14;19.80;18.60
20598;DHT22;10457;48.770;11.446;2023-04-06T13:56:36;19.90;18.80
20598;DHT22;10457;48.770;11.446;2023-04-06T14:01:57;18.70;19.00
20598;DHT22;10457;48.770;11.446;2023-04-06T14:07:20;16.50;22.50
20598;DHT22;10457;48.770;11.446;2023-04-06T14:12:42;15.40;22.90
20598;DHT22;10457;48.770;11.446;2023-04-06T14:18:04;14.40;27.20
20598;DHT22;10457;48.770;11.446;2023-04-06T14:23:28;14.10;28.80
20598;DHT22;10457;48.770;11.446;2023-04-06T14:28:49;13.70;30.30
20598;DHT22;10457;48.770;11.446;2023-04-06T14:34:12;13.40;26.50
20598;DHT22;10457;48.770;11.446;2023-04-06T14:39:34;14.00;30.60
20598;DHT22;10457;48.770;11.446;2023-04-06T14:44:56;14.80;26.70
20598;DHT22;10457;48.770;11.446;2023-04-06T14:50:18;14.80;23.60
20598;DHT22;10457;48.770;11.446;2023-04-06T14:55:41;14.30;26.60
20598;DHT22;10457;48.770;11.446;2023-04-06T15:01:03;14.10;24.90
20598;DHT22;10457;48.770;11.446;2023-04-06T15:06:25;13.40;25.50
20598;DHT22;10457;48.770;11.446;2023-04-06T15:11:48;13.60;24.60
20598;DHT22;10457;48.770;11.446;2023-04-06T15:17:09;13.10;26.50
20598;DHT22;10457;48.770;11.446;2023-04-06T15:22:31;13.40;23.90
20598;DHT22;10457;48.770;11.446;2023-04-06T15:27:55;13.40;27.60
20598;DHT22;10457;48.770;11.446;2023-04-06T15:33:17;13.60;25.80
20598;DHT22;10457;48.770;11.446;2023-04-06T15:38:41;13.50;25.50
20598;DHT22;10457;48.770;11.446;2023-04-06T15:44:06;13.00;27.20
20598;DHT22;10457;48.770;11.446;2023-04-06T15:49:28;13.00;24.50
20598;DHT22;10457;48.770;11.446;2023-04-06T15:54:50;12.70;24.20
20598;DHT22;10457;48.770;11.446;2023-04-06T16:00:13;12.70;27.70
20598;DHT22;10457;48.770;11.446;2023-04-06T16:05:36;12.50;27.80
20598;DHT22;10457;48.770;11.446;2023-04-06T16:10:57;12.60;27.90
20598;DHT22;10457;48.770;11.446;2023-04-06T16:16:20;12.60;25.60
20598;DHT22;10457;48.770;11.446;2023-04-06T16:21:41;12.60;27.60
20598;DHT22;10457;48.770;11.446;2023-04-06T16:27:02;12.50;28.90
20598;DHT22;10457;48.770;11.446;2023-04-06T16:32:25;12.30;26.70
20598;DHT22;10457;48.770;11.446;2023-04-06T16:37:47;12.10;26.50
20598;DHT22;10457;48.770;11.446;2023-04-06T16:43:08;12.00;27.10
20598;DHT22;10457;48.770;11.446;2023-04-06T16:48:31;12.00;27.60
20598;DHT22;10457;48.770;11.446;2023-04-06T16:53:53;12.00;26.00
20598;DHT22;10457;48.770;11.446;2023-04-06T16:59:14;11.70;26.00
20598;DHT22;10457;48.770;11.446;2023-04-06T17:04:37;11.50;27.50
20598;DHT22;10457;48.770;11.446;2023-04-06T17:09:59;11.30;27.90
20598;DHT22;10457;48.770;11.446;2023-04-06T17:15:21;11.10;28.80
20598;DHT22;10457;48.770;11.446;2023-04-06T17:20:45;10.90;29.90
20598;DHT22;10457;48.770;11.446;2023-04-06T17:26:07;10.70;30.00
20598;DHT22;10457;48.770;11.446;2023-04-06T17:31:29;10.60;30.20
20598;DHT22;10457;48.770;11.446;2023-04-06T17:36:52;10.40;30.80
20598;DHT22;10457;48.770;11.446;2023-04-06T17:42:13;10.20;31.10
20598;DHT22;10457;48.770;11.446;2023-04-06T17:47:35;10.10;32.30
20598;DHT22;10457;48.770;11.446;2023-04-06T17:52:58;10.00;33.10
20598;DHT22;10457;48.770;11.446;2023-04-06T17:58:19;9.70;35.60
20598;DHT22;10457;48.770;11.446;2023-04-06T18:03:41;9.30;36.70
20598;DHT22;10457;48.770;11.446;2023-04-06T18:09:04;9.00;37.00
20598;DHT22;10457;48.770;11.446;2023-04-06T18:14:26;8.80;37.90
20598;DHT22;10457;48.770;11.446;2023-04-06T18:19:47;8.60;39.40
20598;DHT22;10457;48.770;11.446;2023-04-06T18:25:10;8.40;39.70
20598;DHT22;10457;48.770;11.446;2023-04-06T18:30:32;8.40;39.40
20598;DHT22;10457;48.770;11.446;2023-04-06T18:35:53;8.10;41.10
20598;DHT22;10457;48.770;11.446;2023-04-06T18:41:16;8.00;43.00
20598;DHT22;10457;48.770;11.446;2023-04-06T18:46:39;7.80;41.40
20598;DHT22;10457;48.770;11.446;2023-04-06T18:52:04;7.80;40.30
20598;DHT22;10457;48.770;11.446;2023-04-06T18:57:27;7.70;40.30
20598;DHT22;10457;48.770;11.446;2023-04-06T19:02:48;7.60;42.00
20598;DHT22;10457;48.770;11.446;2023-04-06T19:08:10;7.40;40.80
20598;DHT22;10457;48.770;11.446;2023-04-06T19:13:33;7.30;40.20
20598;DHT22;10457;48.770;11.446;2023-04-06T19:18:57;7.30;43.30
20598;DHT22;10457;48.770;11.446;2023-04-06T19:24:18;7.20;44.30
20598;DHT22;10457;48.770;11.446;2023-04-06T19:29:41;7.00;44.40
20598;DHT22;10457;48.770;11.446;2023-04-06T19:35:03;6.90;45.40
20598;DHT22;10457;48.770;11.446;2023-04-06T19:40:25;6.70;44.60
20598;DHT22;10457;48.770;11.446;2023-04-06T19:45:48;6.50;47.30
20598;DHT22;10457;48.770;11.446;2023-04-06T19:51:10;6.40;48.20
20598;DHT22;10457;48.770;11.446;2023-04-06T19:56:32;6.30;48.70
20598;DHT22;10457;48.770;11.446;2023-04-06T20:01:55;6.10;50.10
20598;DHT22;10457;48.770;11.446;2023-04-06T20:07:16;6.00;50.30
20598;DHT22;10457;48.770;11.446;2023-04-06T20:12:38;5.90;50.50
20598;DHT22;10457;48.770;11.446;2023-04-06T20:18:02;5.70;50.10
20598;DHT22;10457;48.770;11.446;2023-04-06T20:23:24;5.70;51.00
20598;DHT22;10457;48.770;11.446;2023-04-06T20:28:45;5.50;51.50
20598;DHT22;10457;48.770;11.446;2023-04-06T20:34:08;5.40;51.40
20598;DHT22;10457;48.770;11.446;2023-04-06T20:39:29;5.30;52.10
20598;DHT22;10457;48.770;11.446;2023-04-06T20:44:51;5.20;52.50
20598;DHT22;10457;48.770;11.446;2023-04-06T20:50:14;5.20;53.30
20598;DHT22;10457;48.770;11.446;2023-04-06T20:55:39;5.10;52.70
20598;DHT22;10457;48.770;11.446;2023-04-06T21:01:00;5.00;53.60
20598;DHT22;10457;48.770;11.446;2023-04-06T21:06:26;4.90;54.40
20598;DHT22;10457;48.770;11.446;2023-04-06T21:11:47;4.90;55.30
20598;DHT22;10457;48.770;11.446;2023-04-06T21:17:09;4.70;56.20
20598;DHT22;10457;48.770;11.446;2023-04-06T21:22:32;4.70;56.10
20598;DHT22;10457;48.770;11.446;2023-04-06T21:27:55;4.60;56.60
20598;DHT22;10457;48.770;11.446;2023-04-06T21:33:17;4.50;57.10
20598;DHT22;10457;48.770;11.446;2023-04-06T21:38:40;4.50;57.40
20598;DHT22;10457;48.770;11.446;2023-04-06T21:44:02;4.40;56.50
20598;DHT22;10457;48.770;11.446;2023-04-06T21:49:23;4.40;56.70
20598;DHT22;10457;48.770;11.446;2023-04-06T21:54:46;4.30;57.60
20598;DHT22;10457;48.770;11.446;2023-04-06T22:00:08;4.10;58.70
20598;DHT22;10457;48.770;11.446;2023-04-06T22:05:36;3.90;60.20
20598;DHT22;10457;48.770;11.446;2023-04-06T22:11:05;3.80;60.00
20598;DHT22;10457;48.770;11.446;2023-04-06T22:16:27;3.80;60.40
20598;DHT22;10457;48.770;11.446;2023-04-06T22:21:49;3.70;60.60
20598;DHT22;10457;48.770;11.446;2023-04-06T22:27:12;3.60;61.20
20598;DHT22;10457;48.770;11.446;2023-04-06T22:32:33;3.60;61.50
20598;DHT22;10457;48.770;11.446;2023-04-06T22:37:55;3.50;61.70
20598;DHT22;10457;48.770;11.446;2023-04-06T22:43:20;3.50;62.00
20598;DHT22;10457;48.770;11.446;2023-04-06T22:48:42;3.50;62.30
20598;DHT22;10457;48.770;11.446;2023-04-06T22:54:03;3.40;63.30
20598;DHT22;10457;48.770;11.446;2023-04-06T22:59:26;3.40;62.90
20598;DHT22;10457;48.770;11.446;2023-04-06T23:04:49;3.40;63.30
20598;DHT22;10457;48.770;11.446;2023-04-06T23:10:11;3.30;63.40
20598;DHT22;10457;48.770;11.446;2023-04-06T23:15:34;3.20;64.70
20598;DHT22;10457;48.770;11.446;2023-04-06T23:20:56;3.20;64.10
20598;DHT22;10457;48.770;11.446;2023-04-06T23:26:17;3.30;63.30
20598;DHT22;10457;48.770;11.446;2023-04-06T23:31:42;3.30;62.80
20598;DHT22;10457;48.770;11.446;2023-04-06T23:37:03;3.20;63.60
20598;DHT22;10457;48.770;11.446;2023-04-06T23:42:24;3.20;64.40
20598;DHT22;10457;48.770;11.446;2023-04-06T23:47:48;3.30;64.90
20598;DHT22;10457;48.770;11.446;2023-04-06T23:53:09;3.30;64.80
20598;DHT22;10457;48.770;11.446;2023-04-06T23:58:31;3.40;63.80
